Aviation Digital Data Service (ADDS)

Output produced by METARs form (0650 UTC 28 August 2015)
found at http://aviationweather.gov/adds/metars/
 
KMSS 280533Z 2806/2906 00000KT 3SM BR SCT001 
     TEMPO 2806/2810 1 1/2SM BR BKN001 
     FM281200 23004KT P6SM SKC 
     FM281400 24008KT P6SM FEW035 
     FM290000 21004KT P6SM SKC